Weather at Tamworth Airport

Public forecast

Using degrees Celsius for public forecast. Weather courtesy of forecast.io.

Current aviation weather report (METAR) for Tamworth Airport

Retrieved 2021/01/26 06:00 UTC (38 minutes ago):

YSTW 260600Z AUTO 35009KT 330V030 9999 // SCT082 34/15 Q1004

Aviation forecast (TAF) for Tamworth Airport

Forecast is more than 6 hours old.

Retrieved 2021-01-26 00:36 UTC (6 hours ago):

TAF TAF YSTW 252310Z 2600/2618 33010KT CAVOK BECMG 2608/2609 04007KT CAVOK